Time;durP1;ratioP1;P1;durP2;ratioP2;P2;SDS_P1;SDS_P2;PMS_P1;PMS_P2;Temp;Humidity;BMP_temperature;BMP_pressure;BME280_temperature;BME280_humidity;BME280_pressure;Samples;Min_cycle;Max_cycle;Signal;HPM_P1;HPM_P2
2022/07/28 00:00:09;;;;;;;18.83;10.65;;;14.40;99.90;;;;;;5049329;28;20381;-49
2022/07/28 00:02:36;;;;;;;17.88;10.05;;;14.30;99.90;;;;;;5049825;28;20410;-51
2022/07/28 00:05:05;;;;;;;13.25;10.13;;;14.30;99.90;;;;;;5049070;28;20228;-50
2022/07/28 00:07:32;;;;;;;12.95;10.10;;;14.30;99.90;;;;;;5050468;28;20427;-46
2022/07/28 00:09:59;;;;;;;20.20;11.48;;;14.30;99.90;;;;;;5049102;28;20216;-54
2022/07/28 00:12:27;;;;;;;13.48;9.80;;;14.30;99.90;;;;;;5050023;28;20196;-47
2022/07/28 00:14:54;;;;;;;17.05;12.57;;;14.30;99.90;;;;;;5049011;28;20199;-46
2022/07/28 00:17:22;;;;;;;12.77;8.30;;;14.30;99.90;;;;;;5049051;28;20400;-52
2022/07/28 00:19:49;;;;;;;12.63;8.68;;;14.30;99.90;;;;;;5048879;28;20200;-48
2022/07/28 00:22:17;;;;;;;13.75;6.60;;;14.40;99.90;;;;;;5055415;28;20208;-49
2022/07/28 00:24:44;;;;;;;18.98;10.25;;;14.40;99.90;;;;;;5045500;28;20522;-49
2022/07/28 00:27:16;;;;;;;10.48;7.10;;;14.40;99.90;;;;;;5052320;28;20423;-48
2022/07/28 00:29:45;;;;;;;10.60;7.82;;;14.40;99.90;;;;;;5044536;28;20222;-49
2022/07/28 00:32:17;;;;;;;12.13;8.80;;;14.40;99.90;;;;;;5052406;28;20258;-47
2022/07/28 00:34:44;;;;;;;13.02;9.32;;;14.30;99.90;;;;;;5049663;28;20460;-44
2022/07/28 00:37:12;;;;;;;11.25;7.35;;;14.30;99.90;;;;;;5049093;28;20217;-46
2022/07/28 00:39:41;;;;;;;13.00;7.13;;;14.20;99.90;;;;;;5050031;28;20216;-46
2022/07/28 00:42:08;;;;;;;6.05;5.30;;;14.20;99.90;;;;;;5047822;28;20310;-50
2022/07/28 00:44:37;;;;;;;9.18;6.45;;;14.20;99.90;;;;;;5050185;28;20199;-54
2022/07/28 00:47:05;;;;;;;7.28;6.05;;;14.20;99.90;;;;;;5046072;28;20593;-47
2022/07/28 00:49:32;;;;;;;8.52;6.43;;;14.20;99.90;;;;;;5050705;28;20250;-49
2022/07/28 00:52:01;;;;;;;7.38;6.65;;;14.10;99.90;;;;;;5048546;28;20203;-49
2022/07/28 00:54:28;;;;;;;5.03;4.47;;;14.10;99.90;;;;;;5050501;28;20196;-52
2022/07/28 00:56:56;;;;;;;9.10;6.45;;;14.10;99.90;;;;;;5048178;28;20397;-49
2022/07/28 00:59:24;;;;;;;8.88;6.32;;;14.10;99.90;;;;;;5049384;28;20214;-49
2022/07/28 01:01:53;;;;;;;9.35;4.65;;;14.10;99.90;;;;;;5048831;28;20204;-48
2022/07/28 01:04:21;;;;;;;6.07;4.68;;;14.10;99.90;;;;;;5048130;28;20228;-47
2022/07/28 01:07:05;;;;;;;11.27;5.13;;;14.10;99.90;;;;;;5048588;28;20532;-47
2022/07/28 01:09:52;;;;;;;6.88;4.78;;;14.00;99.90;;;;;;5049622;28;20280;-47
2022/07/28 01:12:31;;;;;;;5.28;4.63;;;13.90;99.90;;;;;;5052272;28;20204;-47
2022/07/28 01:15:29;;;;;;;6.28;4.10;;;13.70;99.90;;;;;;5051800;28;20366;-47
2022/07/28 01:18:05;;;;;;;7.97;6.30;;;13.70;99.90;;;;;;5048278;28;20522;-48
2022/07/28 01:20:40;;;;;;;6.80;5.45;;;13.60;99.90;;;;;;5052889;28;20200;-48
2022/07/28 01:23:22;;;;;;;9.00;5.20;;;13.60;99.90;;;;;;5034493;28;20206;-49
2022/07/28 01:26:18;;;;;;;4.70;4.20;;;13.40;99.90;;;;;;5048151;28;20208;-48
2022/07/28 01:29:04;;;;;;;6.43;5.30;;;13.30;99.90;;;;;;5048077;28;20207;-51
2022/07/28 01:31:38;;;;;;;7.78;5.55;;;13.30;99.90;;;;;;5049908;28;20283;-51
2022/07/28 01:34:09;;;;;;;5.40;4.28;;;13.40;99.90;;;;;;5051066;28;20232;-48
2022/07/28 01:36:42;;;;;;;6.18;4.13;;;13.20;99.90;;;;;;5047540;28;20219;-49
2022/07/28 01:39:12;;;;;;;5.35;4.32;;;13.20;99.90;;;;;;5051060;28;20196;-52
2022/07/28 01:41:42;;;;;;;7.63;5.22;;;13.10;99.90;;;;;;5047879;28;20204;-51
2022/07/28 01:44:15;;;;;;;6.30;3.50;;;13.00;99.90;;;;;;5052404;28;20208;-49
2022/07/28 01:46:45;;;;;;;4.75;4.30;;;13.10;99.90;;;;;;5045172;28;20233;-46
2022/07/28 01:49:13;;;;;;;6.32;3.75;;;13.00;99.90;;;;;;5049595;28;20191;-51
2022/07/28 01:51:43;;;;;;;8.00;4.70;;;13.00;99.90;;;;;;5050680;28;20453;-51
2022/07/28 01:54:11;;;;;;;5.50;3.47;;;13.00;99.90;;;;;;5051961;28;20507;-46
2022/07/28 01:56:41;;;;;;;3.63;3.33;;;12.90;99.90;;;;;;5050383;28;20531;-46
2022/07/28 01:59:10;;;;;;;10.23;3.97;;;12.80;99.90;;;;;;5051090;28;20195;-46
2022/07/28 02:01:42;;;;;;;6.03;3.95;;;12.90;99.90;;;;;;5049068;28;20482;-47
2022/07/28 02:04:11;;;;;;;4.72;4.18;;;13.00;99.90;;;;;;5047670;28;20211;-53
2022/07/28 02:06:41;;;;;;;4.53;3.60;;;13.00;99.90;;;;;;5049351;28;20260;-49
2022/07/28 02:09:09;;;;;;;5.65;4.10;;;12.90;99.90;;;;;;5047542;28;20196;-49
2022/07/28 02:11:40;;;;;;;3.63;3.30;;;12.80;99.90;;;;;;5049575;28;20203;-50
2022/07/28 02:14:09;;;;;;;11.13;3.63;;;12.80;99.90;;;;;;5048142;28;20436;-46
2022/07/28 02:16:41;;;;;;;5.00;3.10;;;12.80;99.90;;;;;;5051765;28;20255;-47
2022/07/28 02:19:10;;;;;;;3.25;2.95;;;12.70;99.90;;;;;;5050642;28;20487;-50
2022/07/28 02:21:39;;;;;;;4.35;3.80;;;12.70;99.90;;;;;;5053453;28;20459;-48
2022/07/28 02:24:08;;;;;;;3.33;3.03;;;12.60;99.90;;;;;;5050209;28;20204;-50
2022/07/28 02:26:40;;;;;;;4.35;3.83;;;12.50;99.90;;;;;;5035233;28;20216;-50
2022/07/28 02:29:11;;;;;;;4.65;3.80;;;12.40;99.90;;;;;;5049105;28;20246;-48
2022/07/28 02:32:06;;;;;;;6.47;3.05;;;12.50;99.90;;;;;;5051130;28;20194;-52
2022/07/28 02:34:59;;;;;;;4.70;3.85;;;12.50;99.90;;;;;;5051214;28;20308;-49
2022/07/28 02:37:35;;;;;;;4.43;3.78;;;12.40;99.90;;;;;;5053360;28;20541;-49
2022/07/28 02:40:04;;;;;;;6.15;4.13;;;12.30;99.90;;;;;;5051348;28;20401;-46
2022/07/28 02:42:34;;;;;;;5.00;3.95;;;12.30;99.90;;;;;;5052683;28;20325;-51
2022/07/28 02:45:05;;;;;;;4.85;2.83;;;12.00;99.90;;;;;;5033356;28;20206;-50
2022/07/28 02:47:39;;;;;;;11.00;5.68;;;11.90;99.90;;;;;;5050889;28;20227;-49
2022/07/28 02:50:07;;;;;;;4.07;3.67;;;12.10;99.90;;;;;;5051205;28;20224;-50
2022/07/28 02:52:35;;;;;;;5.90;4.47;;;12.30;99.90;;;;;;5051957;28;20504;-52
2022/07/28 02:55:04;;;;;;;5.68;3.80;;;12.20;99.90;;;;;;5051106;28;20196;-50
2022/07/28 02:57:32;;;;;;;6.88;4.28;;;12.30;99.90;;;;;;5051123;28;20227;-51
2022/07/28 03:00:00;;;;;;;6.75;5.60;;;12.20;99.90;;;;;;5050401;28;20207;-49
2022/07/28 03:02:29;;;;;;;8.30;4.93;;;12.10;99.90;;;;;;5051908;28;20286;-49
2022/07/28 03:04:58;;;;;;;4.97;4.35;;;12.00;99.90;;;;;;5051187;28;20204;-46
2022/07/28 03:07:30;;;;;;;4.65;4.20;;;12.00;99.90;;;;;;5051162;28;20234;-46
2022/07/28 03:09:58;;;;;;;7.70;4.95;;;11.80;99.90;;;;;;5050479;28;20606;-49
2022/07/28 03:12:26;;;;;;;5.97;4.90;;;11.90;99.90;;;;;;5051147;28;20267;-48
2022/07/28 03:14:53;;;;;;;7.60;4.95;;;11.90;99.90;;;;;;5049872;28;20200;-52
2022/07/28 03:17:21;;;;;;;5.80;5.15;;;11.90;99.90;;;;;;5050456;28;20226;-52
2022/07/28 03:19:49;;;;;;;4.95;4.55;;;11.70;99.90;;;;;;5051371;28;20201;-50
2022/07/28 03:22:16;;;;;;;5.97;4.60;;;11.70;99.90;;;;;;5048802;28;20203;-51
2022/07/28 03:24:49;;;;;;;6.90;4.65;;;11.90;99.90;;;;;;5052959;28;20203;-46
2022/07/28 03:27:24;;;;;;;4.55;4.15;;;12.00;99.90;;;;;;5046169;28;20239;-50
2022/07/28 03:29:57;;;;;;;4.95;4.43;;;12.00;99.90;;;;;;5050100;28;20419;-46
2022/07/28 03:32:33;;;;;;;5.05;4.10;;;12.10;99.90;;;;;;5046189;28;20506;-46
2022/07/28 03:35:00;;;;;;;6.97;4.45;;;12.30;99.90;;;;;;5053397;28;20210;-47
2022/07/28 03:37:39;;;;;;;8.20;4.25;;;12.30;99.90;;;;;;5052163;28;20250;-48
2022/07/28 03:40:09;;;;;;;5.05;3.58;;;12.20;99.90;;;;;;5049825;28;20210;-49
2022/07/28 03:42:38;;;;;;;6.22;3.30;;;12.30;99.90;;;;;;5051951;28;20396;-52
2022/07/28 03:45:06;;;;;;;7.70;5.13;;;12.40;99.90;;;;;;5048744;28;20267;-54
2022/07/28 03:47:33;;;;;;;5.40;4.65;;;12.40;99.90;;;;;;5050801;28;20422;-53
2022/07/28 03:50:00;;;;;;;5.50;4.53;;;12.80;99.90;;;;;;5049943;28;20430;-49
2022/07/28 03:52:27;;;;;;;6.20;3.78;;;13.00;99.90;;;;;;5051169;28;20211;-48
2022/07/28 03:54:54;;;;;;;4.18;3.78;;;13.20;99.90;;;;;;5049773;28;20490;-47
2022/07/28 03:57:23;;;;;;;6.22;3.70;;;13.20;99.90;;;;;;5049565;28;20247;-46
2022/07/28 03:59:50;;;;;;;6.65;3.65;;;13.20;99.90;;;;;;5049764;28;20207;-47
2022/07/28 04:02:17;;;;;;;5.30;3.83;;;13.20;99.90;;;;;;5049622;28;20204;-45
2022/07/28 04:04:44;;;;;;;4.28;3.40;;;13.30;99.90;;;;;;5051430;28;20527;-50
2022/07/28 04:07:12;;;;;;;7.95;4.55;;;13.30;99.90;;;;;;5049273;28;20235;-48
2022/07/28 04:09:40;;;;;;;5.45;3.17;;;13.30;99.90;;;;;;5050713;28;20210;-51
2022/07/28 04:12:07;;;;;;;9.57;4.30;;;13.50;99.90;;;;;;5049433;28;20268;-50
2022/07/28 04:14:34;;;;;;;3.70;3.00;;;13.60;99.90;;;;;;5049742;28;20223;-50
2022/07/28 04:17:02;;;;;;;5.22;3.40;;;13.70;99.90;;;;;;5048697;28;20244;-51
2022/07/28 04:19:29;;;;;;;5.93;4.45;;;13.80;99.90;;;;;;5050442;28;20232;-49
2022/07/28 04:21:56;;;;;;;3.30;2.92;;;13.80;99.90;;;;;;5049852;28;20204;-49
2022/07/28 04:24:23;;;;;;;3.50;2.75;;;13.80;99.90;;;;;;5049311;28;20375;-51
2022/07/28 04:26:51;;;;;;;5.85;3.60;;;14.00;99.90;;;;;;5049039;28;20220;-50
2022/07/28 04:29:18;;;;;;;4.05;3.08;;;14.00;99.90;;;;;;5048950;28;20209;-50
2022/07/28 04:31:52;;;;;;;9.95;2.85;;;14.10;99.90;;;;;;5047655;28;20235;-50
2022/07/28 04:34:20;;;;;;;3.95;3.08;;;14.20;99.90;;;;;;5048913;28;20211;-50
2022/07/28 04:36:47;;;;;;;5.60;3.67;;;14.30;99.90;;;;;;5049639;28;20242;-52
2022/07/28 04:39:15;;;;;;;5.05;3.45;;;14.50;99.90;;;;;;5046044;28;20260;-48
2022/07/28 04:41:42;;;;;;;4.28;3.17;;;14.60;99.90;;;;;;5052247;28;20357;-49
2022/07/28 04:44:10;;;;;;;5.32;2.92;;;14.70;99.90;;;;;;5046254;28;20275;-50
2022/07/28 04:46:38;;;;;;;7.63;3.30;;;14.70;99.90;;;;;;5056643;28;20523;-47
2022/07/28 04:49:06;;;;;;;7.45;3.88;;;14.90;99.90;;;;;;5048289;28;20200;-51
2022/07/28 04:51:34;;;;;;;4.93;3.90;;;14.90;99.90;;;;;;5050428;28;20426;-47
2022/07/28 04:54:02;;;;;;;4.80;3.35;;;14.80;99.90;;;;;;5047010;28;20197;-51
2022/07/28 04:56:29;;;;;;;13.70;8.13;;;14.80;99.90;;;;;;5050474;28;20288;-50
2022/07/28 04:58:57;;;;;;;3.30;2.65;;;14.70;99.90;;;;;;5045389;28;20281;-47
2022/07/28 05:01:27;;;;;;;4.20;3.80;;;14.70;99.90;;;;;;5053967;28;20205;-51
2022/07/28 05:03:54;;;;;;;6.47;3.28;;;14.70;99.90;;;;;;5048420;28;20617;-49
2022/07/28 05:06:21;;;;;;;7.10;3.10;;;14.80;99.90;;;;;;5050494;28;20562;-48
2022/07/28 05:08:49;;;;;;;3.35;2.95;;;15.00;99.90;;;;;;5048370;28;20197;-49
2022/07/28 05:11:16;;;;;;;3.80;2.93;;;15.20;99.90;;;;;;5048246;28;20232;-49
2022/07/28 05:13:44;;;;;;;7.00;3.67;;;15.20;99.90;;;;;;5048676;28;20568;-47
2022/07/28 05:16:11;;;;;;;5.40;3.72;;;15.20;99.90;;;;;;5046911;28;20222;-49
2022/07/28 05:18:38;;;;;;;7.30;4.43;;;15.40;99.90;;;;;;5049512;28;20197;-50
2022/07/28 05:21:06;;;;;;;6.20;3.77;;;15.30;99.90;;;;;;5047894;28;20209;-49
2022/07/28 05:23:33;;;;;;;3.23;3.03;;;15.40;99.90;;;;;;5049914;28;20466;-47
2022/07/28 05:26:00;;;;;;;3.90;2.80;;;15.50;99.90;;;;;;5048104;28;20626;-51
2022/07/28 05:28:28;;;;;;;7.40;3.30;;;15.80;99.90;;;;;;5049978;28;20458;-50
2022/07/28 05:30:55;;;;;;;4.37;3.47;;;16.00;99.90;;;;;;5048477;28;20479;-51
2022/07/28 05:33:23;;;;;;;3.40;3.10;;;16.20;99.90;;;;;;5049004;28;20432;-47
2022/07/28 05:35:57;;;;;;;3.50;3.20;;;16.20;99.90;;;;;;5047984;28;20758;-47
2022/07/28 05:38:26;;;;;;;3.80;3.17;;;16.40;99.90;;;;;;5049757;28;20785;-46
2022/07/28 05:40:53;;;;;;;5.93;2.97;;;16.80;99.90;;;;;;5047897;28;20529;-50
2022/07/28 05:43:20;;;;;;;4.97;2.87;;;16.80;99.90;;;;;;5049065;28;20469;-49
2022/07/28 05:45:48;;;;;;;5.83;3.07;;;16.80;99.90;;;;;;5050984;28;20440;-48
2022/07/28 05:48:19;;;;;;;10.23;2.90;;;16.90;99.90;;;;;;5046270;28;20640;-51
2022/07/28 05:50:49;;;;;;;5.10;3.47;;;17.10;99.90;;;;;;5049507;28;20897;-46
2022/07/28 05:53:18;;;;;;;6.33;2.57;;;17.60;99.90;;;;;;5051749;28;20448;-49
2022/07/28 05:55:45;;;;;;;5.70;2.60;;;17.60;99.90;;;;;;5057991;28;20471;-49
2022/07/28 05:58:27;;;;;;;2.93;2.60;;;17.50;99.90;;;;;;5050317;28;20404;-46
2022/07/28 06:00:58;;;;;;;4.20;2.67;;;17.60;99.90;;;;;;5055372;28;20440;-50
2022/07/28 06:03:27;;;;;;;2.83;2.50;;;17.70;99.90;;;;;;5048775;28;20433;-48
2022/07/28 06:05:55;;;;;;;3.87;3.17;;;17.90;99.90;;;;;;5060581;28;20436;-47
2022/07/28 06:08:41;;;;;;;4.23;2.33;;;18.00;99.90;;;;;;5051449;28;20436;-47
2022/07/28 06:11:08;;;;;;;4.47;3.97;;;18.10;99.90;;;;;;5056868;28;20468;-49
2022/07/28 06:13:37;;;;;;;5.63;2.37;;;18.50;99.90;;;;;;5032566;28;20416;-48
2022/07/28 06:16:05;;;;;;;3.83;2.20;;;18.90;99.90;;;;;;5040279;28;20814;-49
2022/07/28 06:18:38;;;;;;;2.97;2.10;;;19.20;99.90;;;;;;5054277;28;20700;-51
2022/07/28 06:21:06;;;;;;;4.73;1.77;;;19.50;99.90;;;;;;5050499;28;20443;-49
2022/07/28 06:23:34;;;;;;;3.83;1.90;;;20.00;99.90;;;;;;5055879;28;20434;-49
2022/07/28 06:26:01;;;;;;;2.77;1.60;;;20.60;99.90;;;;;;5053641;28;20672;-51
2022/07/28 06:28:28;;;;;;;5.60;1.90;;;21.20;99.90;;;;;;5054728;28;20441;-52
2022/07/28 06:30:56;;;;;;;4.37;3.70;;;21.80;99.90;;;;;;5057151;28;20497;-50
2022/07/28 06:33:23;;;;;;;1.97;1.70;;;22.70;99.90;;;;;;5054129;28;20416;-47
2022/07/28 06:35:51;;;;;;;4.27;2.20;;;23.30;99.90;;;;;;5057536;28;20429;-51
2022/07/28 06:38:19;;;;;;;2.03;1.83;;;24.00;99.90;;;;;;5051787;28;20759;-48
2022/07/28 06:40:47;;;;;;;3.23;1.83;;;25.30;99.90;;;;;;5052645;28;20478;-46
2022/07/28 06:43:14;;;;;;;2.20;2.00;;;26.20;98.20;;;;;;5047165;28;20741;-50
2022/07/28 06:45:43;;;;;;;3.10;1.87;;;27.10;96.40;;;;;;5059310;28;20457;-52
2022/07/28 06:48:12;;;;;;;1.83;1.73;;;27.50;93.60;;;;;;5052298;28;20645;-50
2022/07/28 06:50:40;;;;;;;3.37;1.83;;;27.40;91.10;;;;;;5057096;28;20454;-52
2022/07/28 06:53:08;;;;;;;1.70;1.60;;;27.90;88.70;;;;;;5053471;28;20484;-51
2022/07/28 06:55:36;;;;;;;2.30;1.57;;;28.20;86.30;;;;;;5055182;28;20442;-49
2022/07/28 06:58:03;;;;;;;3.43;2.80;;;28.90;82.90;;;;;;5050036;28;20459;-46
2022/07/28 07:00:31;;;;;;;2.67;1.90;;;29.80;79.70;;;;;;5053238;28;20429;-47
2022/07/28 07:02:59;;;;;;;1.90;1.60;;;31.50;73.90;;;;;;5044253;28;20431;-51
2022/07/28 07:05:30;;;;;;;4.30;2.27;;;32.40;69.00;;;;;;5050133;28;20462;-51
2022/07/28 07:07:58;;;;;;;2.40;2.00;;;33.40;64.30;;;;;;5044473;28;20539;-45
2022/07/28 07:10:26;;;;;;;1.50;1.37;;;32.90;60.90;;;;;;5048753;28;20621;-49
2022/07/28 07:12:54;;;;;;;2.90;2.13;;;33.50;57.80;;;;;;5054363;28;20677;-47
2022/07/28 07:15:21;;;;;;;2.50;1.70;;;33.70;57.40;;;;;;5049279;28;20843;-49
2022/07/28 07:17:49;;;;;;;1.87;1.77;;;35.30;55.00;;;;;;5046681;28;20483;-51
2022/07/28 07:20:17;;;;;;;2.77;1.50;;;36.40;52.40;;;;;;5046883;28;20457;-51
2022/07/28 07:22:45;;;;;;;3.73;1.70;;;37.20;49.30;;;;;;5048613;28;20468;-52
2022/07/28 07:25:15;;;;;;;1.10;1.10;;;37.80;47.50;;;;;;5044983;28;20468;-48
2022/07/28 07:27:44;;;;;;;2.60;1.47;;;35.40;48.10;;;;;;5049988;28;20571;-52
2022/07/28 07:30:12;;;;;;;2.80;2.03;;;33.60;51.10;;;;;;5042220;28;20437;-49
2022/07/28 07:32:40;;;;;;;2.10;1.77;;;34.40;50.50;;;;;;5044826;28;20556;-51
2022/07/28 07:35:08;;;;;;;5.83;2.00;;;35.80;48.70;;;;;;5054003;28;20636;-50
2022/07/28 07:37:35;;;;;;;1.50;1.40;;;36.70;47.80;;;;;;5052328;28;20467;-45
2022/07/28 07:40:04;;;;;;;2.33;2.07;;;36.70;46.10;;;;;;5045219;28;20451;-50
2022/07/28 07:42:31;;;;;;;1.93;1.73;;;37.80;44.80;;;;;;5050788;28;20785;-48
2022/07/28 07:44:58;;;;;;;1.53;1.40;;;38.60;43.60;;;;;;5049401;28;20460;-49
2022/07/28 07:47:25;;;;;;;1.53;1.07;;;37.70;43.80;;;;;;5046807;28;20470;-54
2022/07/28 07:49:52;;;;;;;2.67;1.20;;;37.60;43.80;;;;;;5041926;28;20444;-53
2022/07/28 07:52:20;;;;;;;1.90;1.60;;;37.70;43.10;;;;;;5051117;28;20539;-51
2022/07/28 07:54:47;;;;;;;1.63;1.30;;;36.90;43.60;;;;;;5042802;28;20524;-50
2022/07/28 07:57:14;;;;;;;2.37;1.80;;;37.20;43.20;;;;;;5042211;28;20458;-49
2022/07/28 07:59:41;;;;;;;5.67;1.73;;;38.20;42.40;;;;;;5045008;28;20707;-50
2022/07/28 08:02:08;;;;;;;1.50;1.40;;;39.70;40.10;;;;;;5047780;28;20430;-51
2022/07/28 08:04:36;;;;;;;3.80;1.60;;;40.20;40.20;;;;;;5049286;28;20429;-52
2022/07/28 08:07:05;;;;;;;1.97;1.30;;;41.70;37.80;;;;;;5048545;28;20457;-50
2022/07/28 08:09:33;;;;;;;2.33;1.23;;;41.60;37.70;;;;;;5047870;28;20449;-50
2022/07/28 08:12:00;;;;;;;1.53;1.43;;;40.70;37.50;;;;;;5047578;28;20838;-53
2022/07/28 08:14:27;;;;;;;3.73;1.60;;;40.00;38.20;;;;;;5042692;28;20691;-52
2022/07/28 08:16:55;;;;;;;5.53;2.50;;;37.30;40.40;;;;;;5052170;28;20468;-57
2022/07/28 08:19:22;;;;;;;2.47;1.23;;;37.50;40.30;;;;;;5044367;28;20454;-50
2022/07/28 08:21:50;;;;;;;4.13;1.67;;;38.20;39.70;;;;;;5049950;28;20764;-50
2022/07/28 08:24:18;;;;;;;2.23;1.93;;;36.40;41.50;;;;;;5043619;28;20433;-55
2022/07/28 08:27:01;;;;;;;1.60;1.50;;;36.00;41.60;;;;;;5045270;28;20461;-52
2022/07/28 08:29:29;;;;;;;1.67;1.50;;;34.60;43.00;;;;;;5044886;28;20520;-55
2022/07/28 08:31:56;;;;;;;1.37;1.20;;;34.50;43.00;;;;;;5045388;28;20478;-50
2022/07/28 08:34:24;;;;;;;5.87;1.50;;;33.70;43.90;;;;;;5067923;28;20527;-53
2022/07/28 08:37:01;;;;;;;1.77;1.47;;;33.40;44.00;;;;;;5050002;28;20457;-53
2022/07/28 08:39:29;;;;;;;2.67;1.90;;;33.60;43.80;;;;;;5051686;28;20424;-50
2022/07/28 08:42:16;;;;;;;2.03;1.93;;;31.60;46.20;;;;;;5048624;28;20442;-51
2022/07/28 08:44:53;;;;;;;1.40;1.30;;;31.40;47.30;;;;;;5053890;28;20424;-53
2022/07/28 08:47:25;;;;;;;1.93;1.63;;;32.20;45.70;;;;;;5052838;28;20475;-51
2022/07/28 08:50:07;;;;;;;2.23;1.47;;;33.20;45.40;;;;;;5048495;28;20872;-52
2022/07/28 08:52:37;;;;;;;2.00;1.53;;;32.80;45.40;;;;;;5049934;28;20498;-50
2022/07/28 08:55:07;;;;;;;1.97;1.60;;;33.60;44.70;;;;;;5049614;28;20437;-50
2022/07/28 08:57:37;;;;;;;3.40;1.70;;;33.80;44.40;;;;;;5041143;28;20665;-48
2022/07/28 09:00:05;;;;;;;2.63;1.60;;;33.40;44.40;;;;;;5040682;28;20434;-51
2022/07/28 09:02:40;;;;;;;2.57;1.40;;;33.90;44.20;;;;;;5042279;28;20502;-49
2022/07/28 09:05:08;;;;;;;1.97;1.60;;;34.40;43.30;;;;;;5040516;28;20437;-48
2022/07/28 09:07:37;;;;;;;2.43;1.70;;;34.20;43.80;;;;;;5044857;28;20803;-52
2022/07/28 09:10:05;;;;;;;1.37;1.27;;;33.50;44.10;;;;;;5044466;28;21463;-51
2022/07/28 09:12:33;;;;;;;3.07;1.40;;;34.50;43.90;;;;;;5046636;28;20679;-51
2022/07/28 09:15:08;;;;;;;1.63;1.40;;;34.50;43.90;;;;;;5051972;28;20425;-50
2022/07/28 09:17:36;;;;;;;3.13;2.17;;;33.00;45.00;;;;;;5048922;28;20449;-50
2022/07/28 09:20:06;;;;;;;3.27;1.60;;;32.40;45.90;;;;;;5048115;28;20825;-50
2022/07/28 09:23:00;;;;;;;2.57;1.40;;;33.10;45.20;;;;;;5035234;28;20480;-48
2022/07/28 09:25:28;;;;;;;3.27;1.43;;;33.20;44.70;;;;;;5042524;28;20412;-53
2022/07/28 09:28:06;;;;;;;2.90;1.57;;;33.70;44.80;;;;;;5054858;28;20459;-52
2022/07/28 09:30:36;;;;;;;2.40;1.60;;;33.50;45.10;;;;;;5044256;28;20912;-52
2022/07/28 09:33:25;;;;;;;2.10;1.47;;;34.00;44.80;;;;;;5050511;28;20491;-51
2022/07/28 09:36:14;;;;;;;2.67;2.00;;;32.80;45.60;;;;;;5043106;28;20492;-49
2022/07/28 09:38:42;;;;;;;1.40;1.20;;;32.40;46.60;;;;;;5041934;28;20463;-49
2022/07/28 09:41:10;;;;;;;4.17;1.63;;;32.00;47.50;;;;;;5040003;28;20438;-46
2022/07/28 09:43:43;;;;;;;4.73;1.57;;;31.20;48.10;;;;;;5043757;28;20427;-51
2022/07/28 09:46:16;;;;;;;1.60;1.50;;;29.60;50.60;;;;;;5040115;28;20651;-53
2022/07/28 09:49:00;;;;;;;2.37;1.73;;;27.80;53.00;;;;;;5041368;28;20440;-54
2022/07/28 09:51:30;;;;;;;4.13;1.90;;;26.20;56.20;;;;;;5041712;28;20484;-53
2022/07/28 09:54:12;;;;;;;3.60;2.37;;;25.90;57.40;;;;;;5044100;28;20443;-53
2022/07/28 09:56:43;;;;;;;2.40;1.60;;;26.10;57.60;;;;;;5047145;28;20491;-50
2022/07/28 09:59:11;;;;;;;2.33;2.13;;;26.40;56.10;;;;;;5049015;28;20443;-48
2022/07/28 10:01:58;;;;;;;2.40;1.40;;;26.60;56.60;;;;;;5047013;28;20503;-52
2022/07/28 10:04:35;;;;;;;2.10;1.90;;;27.00;56.40;;;;;;5046647;28;20445;-53
2022/07/28 10:07:08;;;;;;;3.03;1.90;;;27.10;55.90;;;;;;5044640;28;20469;-51
2022/07/28 10:09:37;;;;;;;1.80;1.70;;;27.00;56.00;;;;;;5049130;28;20440;-51
2022/07/28 10:12:16;;;;;;;4.00;2.30;;;27.30;55.60;;;;;;5047142;28;20579;-49
2022/07/28 10:14:46;;;;;;;3.60;1.30;;;26.80;55.70;;;;;;5052477;28;20467;-46
2022/07/28 10:17:31;;;;;;;5.80;2.30;;;26.50;56.90;;;;;;5048350;28;20456;-49
2022/07/28 10:20:05;;;;;;;1.53;0.93;;;26.30;57.70;;;;;;5039082;28;20431;-49
2022/07/28 10:22:36;;;;;;;1.70;1.60;;;26.20;57.40;;;;;;5050577;28;20440;-50
2022/07/28 10:25:11;;;;;;;1.90;1.70;;;25.30;59.20;;;;;;5041564;28;20571;-51
2022/07/28 10:27:41;;;;;;;2.33;1.60;;;25.30;59.40;;;;;;5053065;28;20668;-50
2022/07/28 10:30:09;;;;;;;1.83;1.47;;;25.70;59.50;;;;;;5044217;28;20488;-47
2022/07/28 10:32:44;;;;;;;2.70;1.60;;;25.90;59.00;;;;;;5054030;28;20482;-50
2022/07/28 10:35:15;;;;;;;2.20;1.20;;;25.70;59.60;;;;;;5046017;28;20488;-51
2022/07/28 10:37:58;;;;;;;2.07;1.60;;;25.30;60.10;;;;;;5045186;28;20451;-50
2022/07/28 10:40:39;;;;;;;3.27;1.60;;;25.20;60.50;;;;;;5046592;28;20433;-52
2022/07/28 10:43:07;;;;;;;1.57;1.47;;;25.50;60.40;;;;;;5045351;28;20459;-50
2022/07/28 10:45:37;;;;;;;2.73;1.77;;;25.70;60.90;;;;;;5046203;28;20442;-53
2022/07/28 10:48:25;;;;;;;3.33;1.77;;;26.00;59.50;;;;;;5045591;28;20475;-54
2022/07/28 10:50:54;;;;;;;3.30;1.53;;;25.40;60.30;;;;;;5045883;28;20408;-55
2022/07/28 10:53:35;;;;;;;2.87;1.60;;;25.30;60.90;;;;;;5048186;28;20544;-50
2022/07/28 10:56:16;;;;;;;1.80;1.40;;;25.30;61.50;;;;;;5046170;28;20434;-48
2022/07/28 10:58:57;;;;;;;1.63;1.53;;;25.40;60.80;;;;;;5045728;28;20508;-51
2022/07/28 11:01:36;;;;;;;2.30;1.87;;;24.70;63.20;;;;;;5045941;28;20431;-49
2022/07/28 11:04:46;;;;;;;3.20;2.03;;;24.90;62.80;;;;;;5029548;28;20456;-50
2022/07/28 11:07:16;;;;;;;5.10;1.50;;;25.20;61.30;;;;;;5038556;28;20494;-53
2022/07/28 11:09:46;;;;;;;3.13;1.70;;;25.20;61.50;;;;;;5044233;28;20438;-46
2022/07/28 11:12:16;;;;;;;1.70;1.60;;;25.40;62.20;;;;;;5043730;28;20532;-48
2022/07/28 11:14:45;;;;;;;1.43;1.30;;;25.40;61.90;;;;;;5046029;28;20507;-50
2022/07/28 11:17:17;;;;;;;5.07;2.30;;;25.30;62.20;;;;;;5053487;28;20596;-50
2022/07/28 11:19:54;;;;;;;1.53;1.43;;;25.30;62.20;;;;;;5043596;28;20445;-49
2022/07/28 11:22:42;;;;;;;2.97;1.67;;;25.40;61.50;;;;;;5051419;28;20782;-52
2022/07/28 11:25:10;;;;;;;5.10;1.53;;;25.70;60.70;;;;;;5042534;28;20444;-54
2022/07/28 11:27:50;;;;;;;1.93;1.67;;;26.00;60.10;;;;;;5044377;28;20473;-53
2022/07/28 11:30:18;;;;;;;2.50;2.00;;;26.00;60.50;;;;;;5045816;28;20824;-52
2022/07/28 11:32:54;;;;;;;1.37;1.27;;;26.00;60.30;;;;;;5046939;28;20480;-53
2022/07/28 11:35:22;;;;;;;2.43;1.93;;;26.30;61.30;;;;;;5046262;28;20512;-52
2022/07/28 11:38:02;;;;;;;1.77;1.60;;;26.30;59.50;;;;;;5044260;28;20515;-49
2022/07/28 11:40:30;;;;;;;3.33;1.77;;;26.10;60.00;;;;;;5047059;28;20445;-51
2022/07/28 11:43:22;;;;;;;1.67;1.57;;;25.70;60.10;;;;;;5048706;28;20438;-50
2022/07/28 11:46:03;;;;;;;2.70;1.40;;;25.30;61.80;;;;;;5055786;28;20416;-50
2022/07/28 11:48:46;;;;;;;4.10;1.77;;;25.10;63.00;;;;;;5044446;28;20445;-51
2022/07/28 11:51:14;;;;;;;5.20;1.70;;;25.30;63.30;;;;;;5042731;28;20729;-49
2022/07/28 11:53:50;;;;;;;5.03;1.60;;;25.20;63.00;;;;;;5046024;28;20733;-51
2022/07/28 11:56:27;;;;;;;4.53;2.60;;;25.10;64.00;;;;;;5044893;28;20445;-50
2022/07/28 11:59:00;;;;;;;1.80;1.70;;;24.90;64.00;;;;;;5049720;28;20789;-50
2022/07/28 12:01:29;;;;;;;3.27;1.50;;;24.80;65.10;;;;;;5051353;28;20470;-51
2022/07/28 12:03:58;;;;;;;3.03;1.63;;;24.60;65.30;;;;;;5045031;28;20486;-50
2022/07/28 12:06:37;;;;;;;2.17;1.63;;;24.40;65.70;;;;;;5049764;28;20508;-51
2022/07/28 12:09:07;;;;;;;3.03;2.00;;;24.20;66.20;;;;;;5046645;28;20459;-50
2022/07/28 12:11:40;;;;;;;3.00;1.70;;;24.20;67.10;;;;;;5050153;28;20441;-50
2022/07/28 12:14:13;;;;;;;6.90;1.57;;;24.30;67.50;;;;;;5044334;28;20653;-53
2022/07/28 12:16:44;;;;;;;2.10;1.40;;;24.50;66.40;;;;;;5050087;28;20431;-49
2022/07/28 12:19:15;;;;;;;1.97;1.50;;;24.40;66.80;;;;;;5047460;28;20442;-50
2022/07/28 12:21:52;;;;;;;2.23;1.70;;;24.60;67.00;;;;;;5048948;28;20475;-49
2022/07/28 12:24:33;;;;;;;2.87;1.60;;;24.60;65.80;;;;;;5042118;28;20415;-50
2022/07/28 12:27:12;;;;;;;6.37;2.50;;;24.40;66.00;;;;;;5046691;28;20466;-48
2022/07/28 12:29:42;;;;;;;3.37;1.60;;;24.20;67.00;;;;;;5051142;28;20429;-48
2022/07/28 12:32:16;;;;;;;2.23;1.40;;;24.30;67.40;;;;;;5047607;28;20451;-50
2022/07/28 12:34:44;;;;;;;1.57;1.40;;;24.40;67.10;;;;;;5053420;28;20500;-50
2022/07/28 12:37:12;;;;;;;1.97;1.60;;;24.40;66.60;;;;;;5042705;28;20453;-48
2022/07/28 12:39:42;;;;;;;2.20;2.00;;;24.50;66.80;;;;;;5054714;28;20475;-51
2022/07/28 12:42:11;;;;;;;2.73;2.50;;;24.40;67.10;;;;;;5044485;28;20455;-48
2022/07/28 12:44:43;;;;;;;1.90;1.80;;;24.40;67.40;;;;;;5046716;28;20408;-53
2022/07/28 12:47:12;;;;;;;2.37;1.70;;;24.40;66.90;;;;;;5053362;28;20532;-50
2022/07/28 12:49:42;;;;;;;1.60;1.50;;;24.40;67.30;;;;;;5049542;28;20517;-55
2022/07/28 12:52:21;;;;;;;3.63;2.60;;;24.60;66.90;;;;;;5048748;28;20646;-50
2022/07/28 12:54:50;;;;;;;2.83;2.40;;;24.50;66.80;;;;;;5052526;28;20435;-52
2022/07/28 12:57:39;;;;;;;3.00;2.70;;;24.50;66.90;;;;;;5059441;28;20520;-51
2022/07/28 13:00:17;;;;;;;3.53;1.60;;;24.50;66.40;;;;;;5048647;28;20621;-51
2022/07/28 13:02:46;;;;;;;3.33;2.23;;;24.60;66.90;;;;;;5058016;28;20428;-51
2022/07/28 13:05:31;;;;;;;3.43;2.60;;;24.60;66.00;;;;;;5046632;28;20637;-49